Terminal Aerodrome Forecast
Issued by NWS Charleston, WV

Current Version | Previous Version | Graphics & Text | Print | Product List | Glossary On
Versions: 1 2 3 4 5 6 7 8 9 10 11 12 13 14 15 16 17 18 19 20 21 22 23 24 25 26
000
FTUS41 KRLX 142341
TAFHTS
TAF
KHTS 142341Z 1500/1524 31003KT 2SM -DZ BR OVC005
     FM150400 33002KT 1/2SM -DZ FG OVC002
     FM151200 36003KT 2SM BR OVC004
     FM151400 03004KT 4SM BR OVC010
     FM151600 05004KT P6SM BKN020=

USA.gov is the U.S. government's official web portal to all federal, state and local government web resources and services.